createdAt,value
2023-03-22T00:01:56.051Z,6.05
2023-03-22T00:04:24.251Z,5.32
2023-03-22T00:06:53.429Z,5.15
2023-03-22T00:09:30.227Z,8.50
2023-03-22T00:12:00.226Z,4.88
2023-03-22T00:14:35.065Z,5.00
2023-03-22T00:17:03.241Z,6.28
2023-03-22T00:19:38.786Z,6.10
2023-03-22T00:22:25.366Z,5.40
2023-03-22T00:24:58.334Z,5.40
2023-03-22T00:27:38.704Z,4.75
2023-03-22T00:30:07.938Z,5.45
2023-03-22T00:32:53.228Z,5.05
2023-03-22T00:35:21.113Z,5.20
2023-03-22T00:37:52.848Z,5.15
2023-03-22T00:40:24.769Z,6.15
2023-03-22T00:42:53.794Z,5.18
2023-03-22T00:45:21.722Z,6.07
2023-03-22T00:47:54.575Z,5.15
2023-03-22T00:50:29.761Z,5.78
2023-03-22T00:52:57.451Z,5.85
2023-03-22T00:55:44.738Z,4.53
2023-03-22T00:58:12.506Z,4.85
2023-03-22T01:00:49.760Z,4.65
2023-03-22T01:03:23.238Z,4.85
2023-03-22T01:05:59.129Z,4.53
2023-03-22T01:08:34.496Z,5.07
2023-03-22T01:11:03.460Z,4.65
2023-03-22T01:13:59.352Z,4.90
2023-03-22T01:16:46.020Z,5.25
2023-03-22T01:19:14.408Z,4.78
2023-03-22T01:21:43.706Z,4.53
2023-03-22T01:24:11.432Z,5.68
2023-03-22T01:26:46.910Z,5.38
2023-03-22T01:29:45.592Z,5.38
2023-03-22T01:32:13.470Z,5.25
2023-03-22T01:34:50.439Z,5.75
2023-03-22T01:37:18.297Z,5.80
2023-03-22T01:40:05.950Z,5.75
2023-03-22T01:42:34.155Z,6.30
2023-03-22T01:45:21.827Z,6.13
2023-03-22T01:47:53.287Z,6.00
2023-03-22T01:53:06.498Z,5.60
2023-03-22T01:56:07.547Z,6.13
2023-03-22T01:58:37.168Z,6.63
2023-03-22T02:01:08.914Z,6.95
2023-03-22T02:03:59.952Z,6.68
2023-03-22T02:06:48.358Z,6.38
2023-03-22T02:09:24.114Z,8.00
2023-03-22T02:12:16.906Z,7.18
2023-03-22T02:15:10.512Z,6.72
2023-03-22T02:18:03.122Z,10.77
2023-03-22T02:20:50.771Z,7.70
2023-03-22T02:23:40.537Z,6.60
2023-03-22T02:26:27.454Z,6.60
2023-03-22T02:29:14.050Z,7.47
2023-03-22T02:32:01.102Z,7.15
2023-03-22T02:34:50.703Z,6.78
2023-03-22T02:37:38.679Z,6.22
2023-03-22T02:40:13.558Z,5.88
2023-03-22T02:43:00.396Z,5.50
2023-03-22T02:45:37.032Z,6.55
2023-03-22T02:48:25.010Z,6.00
2023-03-22T02:51:09.495Z,6.85
2023-03-22T02:53:56.223Z,6.88
2023-03-22T02:56:49.264Z,6.13
2023-03-22T02:59:19.289Z,5.80
2023-03-22T03:02:02.706Z,7.05
2023-03-22T03:04:42.427Z,5.18
2023-03-22T03:07:31.516Z,5.65
2023-03-22T03:10:15.404Z,6.53
2023-03-22T03:12:51.020Z,5.38
2023-03-22T03:15:28.821Z,5.22
2023-03-22T03:17:59.400Z,5.88
2023-03-22T03:20:51.262Z,6.10
2023-03-22T03:23:21.157Z,6.50
2023-03-22T03:26:07.880Z,8.32
2023-03-22T03:28:53.431Z,5.97
2023-03-22T03:31:43.361Z,6.70
2023-03-22T03:34:32.224Z,5.82
2023-03-22T03:37:15.096Z,6.53
2023-03-22T03:40:06.845Z,5.72
2023-03-22T03:45:07.877Z,5.95
2023-03-22T03:47:36.205Z,6.50
2023-03-22T03:50:08.469Z,6.03
2023-03-22T03:52:37.018Z,6.72
2023-03-22T03:55:05.712Z,6.13
2023-03-22T03:57:33.674Z,5.80
2023-03-22T04:00:01.785Z,6.30
2023-03-22T04:02:31.925Z,6.47
2023-03-22T04:05:00.188Z,6.70
2023-03-22T04:07:31.076Z,5.90
2023-03-22T04:10:01.436Z,6.10
2023-03-22T04:12:32.410Z,5.57
2023-03-22T04:15:02.808Z,4.80
2023-03-22T04:17:33.339Z,6.13
2023-03-22T04:20:05.887Z,5.53
2023-03-22T04:22:39.640Z,5.70
2023-03-22T04:25:14.913Z,7.18
2023-03-22T04:28:05.490Z,6.28
2023-03-22T04:30:38.930Z,6.00
2023-03-22T04:33:09.772Z,6.93
2023-03-22T04:35:37.799Z,6.43
2023-03-22T04:38:06.629Z,6.68
2023-03-22T04:40:38.321Z,5.88
2023-03-22T04:43:06.851Z,5.57
2023-03-22T04:45:36.472Z,5.68
2023-03-22T04:48:09.107Z,5.50
2023-03-22T04:50:37.294Z,6.07
2023-03-22T04:53:05.334Z,5.30
2023-03-22T04:55:35.716Z,6.32
2023-03-22T04:58:09.996Z,4.93
2023-03-22T05:00:40.431Z,5.90
2023-03-22T05:03:19.930Z,6.17
2023-03-22T05:05:54.817Z,6.68
2023-03-22T05:08:28.402Z,5.18
2023-03-22T05:11:07.247Z,5.13
2023-03-22T05:13:41.551Z,5.03
2023-03-22T05:16:11.640Z,4.60
2023-03-22T05:18:47.159Z,4.45
2023-03-22T05:21:19.259Z,5.13
2023-03-22T05:23:51.652Z,4.82
2023-03-22T05:26:29.317Z,6.18
2023-03-22T05:29:08.922Z,4.20
2023-03-22T05:31:39.310Z,4.88
2023-03-22T05:34:09.537Z,5.38
2023-03-22T05:36:43.994Z,5.28
2023-03-22T05:39:13.454Z,5.22
2023-03-22T05:42:00.013Z,5.20
2023-03-22T05:44:30.243Z,4.68
2023-03-22T05:47:06.773Z,4.75
2023-03-22T05:49:41.031Z,4.65
2023-03-22T05:52:08.866Z,4.78
2023-03-22T05:54:38.482Z,4.78
2023-03-22T05:57:06.858Z,4.55
2023-03-22T05:59:37.048Z,4.82
2023-03-22T06:02:14.936Z,4.45
2023-03-22T06:04:46.343Z,4.95
2023-03-22T06:07:18.169Z,5.60
2023-03-22T06:09:55.299Z,5.15
2023-03-22T06:12:34.151Z,4.72
2023-03-22T06:15:07.757Z,4.90
2023-03-22T06:17:36.912Z,4.78
2023-03-22T06:20:13.270Z,4.63
2023-03-22T06:22:43.625Z,5.40
2023-03-22T06:25:12.200Z,5.38
2023-03-22T06:27:45.225Z,4.80
2023-03-22T06:30:25.807Z,6.10
2023-03-22T06:32:54.852Z,5.73
2023-03-22T06:35:24.780Z,6.00
2023-03-22T06:37:53.711Z,6.18
2023-03-22T06:40:23.767Z,5.05
2023-03-22T06:42:53.858Z,4.75
2023-03-22T06:45:34.491Z,4.72
2023-03-22T06:48:08.526Z,4.97
2023-03-22T06:50:43.075Z,4.10
2023-03-22T06:53:11.971Z,4.43
2023-03-22T06:55:47.118Z,4.40
2023-03-22T06:58:17.131Z,4.28
2023-03-22T07:00:59.599Z,5.30
2023-03-22T07:03:27.690Z,4.38
2023-03-22T07:06:09.086Z,4.68
2023-03-22T07:08:38.743Z,4.18
2023-03-22T07:11:07.307Z,4.25
2023-03-22T07:13:40.274Z,4.65
2023-03-22T07:16:08.896Z,3.50
2023-03-22T07:18:39.063Z,3.75
2023-03-22T07:21:07.103Z,4.10
2023-03-22T07:23:35.003Z,3.63
2023-03-22T07:26:04.081Z,3.33
2023-03-22T07:28:32.250Z,3.28
2023-03-22T07:31:08.710Z,3.20
2023-03-22T07:33:37.889Z,3.15
2023-03-22T07:36:14.143Z,3.33
2023-03-22T07:38:52.663Z,3.10
2023-03-22T07:41:25.256Z,3.58
2023-03-22T07:44:00.129Z,3.10
2023-03-22T07:46:42.143Z,3.40
2023-03-22T07:49:10.283Z,4.05
2023-03-22T07:51:38.186Z,3.53
2023-03-22T07:54:07.733Z,3.20
2023-03-22T07:56:39.327Z,3.30
2023-03-22T08:01:36.744Z,3.33
2023-03-22T08:04:04.663Z,3.67
2023-03-22T08:06:34.324Z,3.88
2023-03-22T08:09:19.467Z,3.63
2023-03-22T08:11:51.581Z,3.92
2023-03-22T08:14:30.563Z,3.28
2023-03-22T08:17:05.103Z,3.22
2023-03-22T08:19:34.499Z,3.78
2023-03-22T08:22:03.594Z,3.50
2023-03-22T08:24:31.939Z,3.30
2023-03-22T08:27:00.965Z,3.72
2023-03-22T08:29:28.952Z,3.75
2023-03-22T08:31:57.437Z,4.10
2023-03-22T08:34:32.612Z,3.40
2023-03-22T08:37:09.576Z,3.92
2023-03-22T08:39:44.864Z,3.70
2023-03-22T08:42:26.015Z,3.95
2023-03-22T08:45:07.259Z,4.63
2023-03-22T08:47:36.058Z,4.88
2023-03-22T08:50:05.296Z,4.40
2023-03-22T08:52:32.974Z,4.20
2023-03-22T08:55:02.342Z,4.20
2023-03-22T08:57:51.569Z,4.53
2023-03-22T09:00:48.480Z,4.65
2023-03-22T09:03:19.973Z,4.50
2023-03-22T09:05:55.224Z,4.30
2023-03-22T09:08:59.472Z,4.40
2023-03-22T09:11:41.711Z,4.40
2023-03-22T09:14:14.749Z,4.40
2023-03-22T09:16:47.145Z,5.22
2023-03-22T09:19:22.395Z,6.32
2023-03-22T09:21:55.518Z,5.57
2023-03-22T09:24:47.053Z,4.43
2023-03-22T09:30:14.267Z,4.47
2023-03-22T09:32:42.632Z,4.88
2023-03-22T09:35:24.853Z,6.72
2023-03-22T09:37:54.598Z,6.88
2023-03-22T09:40:25.705Z,6.40
2023-03-22T09:43:33.162Z,7.95
2023-03-22T09:46:16.204Z,6.28
2023-03-22T09:48:50.452Z,5.93
2023-03-22T09:51:24.945Z,6.40
2023-03-22T09:53:54.912Z,6.32
2023-03-22T09:56:38.474Z,7.10
2023-03-22T09:59:09.422Z,5.88
2023-03-22T10:01:42.136Z,6.10
2023-03-22T10:04:32.307Z,5.82
2023-03-22T10:07:24.050Z,5.57
2023-03-22T10:10:05.023Z,5.35
2023-03-22T10:12:55.426Z,5.32
2023-03-22T10:15:33.037Z,5.32
2023-03-22T10:18:04.044Z,5.05
2023-03-22T10:20:51.206Z,5.22
2023-03-22T10:23:21.732Z,4.95
2023-03-22T10:25:57.735Z,4.80
2023-03-22T10:28:30.668Z,5.55
2023-03-22T10:30:59.704Z,5.15
2023-03-22T10:33:42.517Z,5.90
2023-03-22T10:36:15.400Z,4.70
2023-03-22T10:38:50.677Z,4.53
2023-03-22T10:41:23.839Z,5.10
2023-03-22T10:43:58.083Z,3.83
2023-03-22T10:46:27.536Z,4.35
2023-03-22T10:48:59.512Z,4.78
2023-03-22T10:52:03.265Z,5.10
2023-03-22T10:54:35.266Z,4.80
2023-03-22T10:57:11.827Z,4.88
2023-03-22T10:59:50.446Z,4.55
2023-03-22T11:02:20.544Z,4.57
2023-03-22T11:04:58.655Z,5.22
2023-03-22T11:07:46.482Z,5.43
2023-03-22T11:10:24.542Z,4.85
2023-03-22T11:13:11.066Z,3.88
2023-03-22T11:15:57.228Z,4.22
2023-03-22T11:18:49.652Z,4.82
2023-03-22T11:21:39.195Z,4.15
2023-03-22T11:24:08.419Z,3.85
2023-03-22T11:26:41.564Z,3.90
2023-03-22T11:29:14.889Z,5.03
2023-03-22T11:32:21.890Z,4.57
2023-03-22T11:35:29.326Z,5.78
2023-03-22T11:38:07.948Z,5.32
2023-03-22T11:40:45.519Z,5.97
2023-03-22T11:43:13.525Z,5.47
2023-03-22T11:45:56.627Z,5.20
2023-03-22T11:48:28.691Z,4.47
2023-03-22T11:51:04.903Z,5.10
2023-03-22T11:54:08.829Z,5.22
2023-03-22T11:56:48.499Z,5.18
2023-03-22T11:59:38.456Z,4.72
2023-03-22T12:02:25.068Z,5.25
2023-03-22T12:05:16.175Z,5.05
2023-03-22T12:07:44.481Z,4.97
2023-03-22T12:10:24.223Z,4.18
2023-03-22T12:12:55.326Z,5.13
2023-03-22T12:17:54.232Z,5.05
2023-03-22T12:23:22.272Z,5.15
2023-03-22T12:29:43.999Z,4.57
2023-03-22T12:32:22.424Z,5.20
2023-03-22T12:35:16.579Z,5.10
2023-03-22T12:38:04.543Z,5.63
2023-03-22T12:43:42.187Z,6.22
2023-03-22T12:46:16.675Z,5.53
2023-03-22T12:49:02.456Z,5.10
2023-03-22T12:51:30.494Z,6.13
2023-03-22T12:54:05.035Z,5.72
2023-03-22T12:59:50.186Z,5.90
2023-03-22T13:02:59.360Z,5.38
2023-03-22T13:14:39.087Z,5.55
2023-03-22T13:17:28.727Z,4.75
2023-03-22T13:19:57.150Z,5.15
2023-03-22T13:26:01.091Z,5.00
2023-03-22T13:28:40.596Z,4.68
2023-03-22T13:34:34.569Z,5.15
2023-03-22T13:37:13.075Z,5.10
2023-03-22T13:39:44.076Z,4.40
2023-03-22T13:43:05.481Z,3.97
2023-03-22T13:48:28.787Z,4.13
2023-03-22T13:51:11.153Z,4.90
2023-03-22T13:53:39.958Z,3.97
2023-03-22T13:56:09.048Z,5.38
2023-03-22T13:58:51.073Z,5.40
2023-03-22T14:01:24.320Z,3.97
2023-03-22T14:04:01.100Z,4.45
2023-03-22T14:06:53.678Z,4.60
2023-03-22T14:09:32.208Z,4.72
2023-03-22T14:12:15.758Z,4.50
2023-03-22T14:15:02.112Z,4.70
2023-03-22T14:17:33.106Z,4.53
2023-03-22T14:54:29.042Z,5.10
2023-03-22T14:57:02.819Z,4.93
2023-03-22T14:59:37.351Z,4.55
2023-03-22T15:02:17.014Z,4.78
2023-03-22T15:04:51.275Z,5.43
2023-03-22T15:07:29.366Z,5.05
2023-03-22T15:10:22.107Z,4.85
2023-03-22T15:12:53.260Z,4.95
2023-03-22T15:17:55.037Z,4.80
2023-03-22T15:20:28.148Z,4.88
2023-03-22T15:23:01.253Z,4.95
2023-03-22T15:25:32.997Z,5.55
2023-03-22T15:28:11.876Z,4.82
2023-03-22T15:30:45.979Z,4.47
2023-03-22T15:33:21.315Z,4.70
2023-03-22T15:35:51.932Z,4.18
2023-03-22T15:41:28.327Z,4.50
2023-03-22T15:44:15.829Z,4.82
2023-03-22T15:47:00.744Z,4.57
2023-03-22T15:49:38.572Z,4.30
2023-03-22T15:52:23.749Z,5.97
2023-03-22T15:54:56.661Z,4.60
2023-03-22T15:57:49.304Z,5.00
2023-03-22T16:00:38.549Z,5.43
2023-03-22T16:03:17.455Z,4.65
2023-03-22T16:05:48.117Z,5.15
2023-03-22T16:08:29.145Z,4.90
2023-03-22T16:10:58.574Z,5.00
2023-03-22T16:13:27.483Z,5.57
2023-03-22T16:15:58.450Z,5.68
2023-03-22T16:18:29.968Z,5.70
2023-03-22T16:20:58.688Z,5.00
2023-03-22T16:23:29.036Z,4.43
2023-03-22T16:26:10.135Z,5.43
2023-03-22T16:28:47.941Z,4.72
2023-03-22T16:31:17.891Z,4.50
2023-03-22T16:33:51.002Z,5.32
2023-03-22T16:36:35.517Z,5.40
2023-03-22T16:39:07.349Z,3.78
2023-03-22T16:41:47.429Z,5.10
2023-03-22T16:44:28.440Z,3.55
2023-03-22T16:46:57.576Z,4.53
2023-03-22T16:49:27.337Z,3.03
2023-03-22T16:51:56.372Z,2.63
2023-03-22T16:56:59.082Z,7.10
2023-03-22T16:59:39.606Z,3.42
2023-03-22T17:02:17.305Z,2.92
2023-03-22T17:04:46.645Z,3.88
2023-03-22T17:07:30.301Z,3.33
2023-03-22T17:10:04.236Z,4.18
2023-03-22T17:12:41.186Z,4.22
2023-03-22T17:15:32.780Z,5.05
2023-03-22T17:18:14.129Z,3.95
2023-03-22T17:20:42.962Z,4.82
2023-03-22T17:23:13.742Z,4.13
2023-03-22T17:25:45.421Z,3.38
2023-03-22T17:28:17.547Z,4.70
2023-03-22T17:30:45.780Z,6.00
2023-03-22T17:33:18.341Z,4.50
2023-03-22T17:35:55.024Z,3.60
2023-03-22T17:38:31.711Z,3.75
2023-03-22T17:41:12.186Z,3.55
2023-03-22T17:43:40.419Z,3.28
2023-03-22T17:46:58.399Z,3.17
2023-03-22T17:49:03.126Z,5.15
2023-03-22T17:51:32.725Z,4.53
2023-03-22T17:54:51.784Z,3.47
2023-03-22T17:57:44.518Z,4.35
2023-03-22T18:00:01.422Z,3.95
2023-03-22T18:02:32.550Z,4.53
2023-03-22T18:05:01.313Z,4.35
2023-03-22T18:08:16.550Z,6.00
2023-03-22T18:10:58.030Z,6.13
2023-03-22T18:13:39.415Z,5.40
2023-03-22T18:16:24.798Z,5.68
2023-03-22T18:19:19.038Z,6.70
2023-03-22T18:22:00.738Z,4.97
2023-03-22T18:24:41.719Z,7.63
2023-03-22T18:27:22.531Z,6.22
2023-03-22T18:30:02.246Z,8.90
2023-03-22T18:32:48.591Z,8.45
2023-03-22T18:35:23.220Z,7.43
2023-03-22T18:38:07.494Z,5.25
2023-03-22T18:43:37.592Z,8.48
2023-03-22T18:46:19.343Z,7.70
2023-03-22T18:48:47.786Z,9.55
2023-03-22T18:51:16.244Z,11.65
2023-03-22T18:53:55.791Z,9.88
2023-03-22T18:56:32.427Z,10.20
2023-03-22T18:59:05.033Z,11.02
2023-03-22T19:01:41.981Z,11.38
2023-03-22T19:04:46.801Z,8.55
2023-03-22T19:07:35.422Z,8.25
2023-03-22T19:10:18.164Z,10.30
2023-03-22T19:12:51.459Z,9.90
2023-03-22T19:18:14.159Z,10.60
2023-03-22T19:20:57.708Z,9.73
2023-03-22T19:23:36.073Z,9.82
2023-03-22T19:26:10.840Z,9.82
2023-03-22T19:31:44.297Z,9.45
2023-03-22T19:37:28.278Z,9.85
2023-03-22T19:43:04.136Z,8.43
2023-03-22T19:45:32.585Z,8.65
2023-03-22T19:48:07.908Z,7.88
2023-03-22T19:50:50.154Z,8.48
2023-03-22T19:54:11.235Z,7.82
2023-03-22T19:56:20.177Z,8.77
2023-03-22T19:58:51.936Z,8.55
2023-03-22T20:01:23.443Z,9.38
2023-03-22T20:03:55.027Z,9.55
2023-03-22T20:06:36.644Z,9.00
2023-03-22T20:12:06.293Z,8.23
2023-03-22T20:21:00.902Z,10.00
2023-03-22T20:30:11.955Z,9.10
2023-03-22T20:33:38.866Z,9.63
2023-03-22T20:48:12.712Z,8.82
2023-03-22T20:50:44.484Z,8.73
2023-03-22T20:59:44.014Z,8.20
2023-03-22T21:05:25.727Z,8.68
2023-03-22T21:11:18.134Z,8.00
2023-03-22T21:13:58.806Z,8.07
2023-03-22T21:17:07.000Z,8.70
2023-03-22T21:19:40.696Z,7.53
2023-03-22T21:22:18.450Z,8.02
2023-03-22T21:24:57.367Z,8.13
2023-03-22T21:27:35.209Z,7.50
2023-03-22T21:30:09.045Z,8.98
2023-03-22T21:32:39.659Z,8.32
2023-03-22T21:35:12.618Z,7.70
2023-03-22T21:37:49.420Z,7.78
2023-03-22T21:40:36.644Z,6.78
2023-03-22T21:43:20.779Z,8.25
2023-03-22T21:45:49.383Z,7.22
2023-03-22T21:48:21.716Z,7.68
2023-03-22T22:08:02.971Z,5.95
2023-03-22T22:11:25.102Z,6.18
2023-03-22T22:14:20.898Z,6.82
2023-03-22T22:32:34.090Z,7.45
2023-03-22T22:41:40.373Z,5.78
2023-03-22T23:03:37.887Z,5.50
2023-03-22T23:06:37.550Z,5.57
2023-03-22T23:09:07.658Z,5.40
2023-03-22T23:11:53.826Z,5.80
2023-03-22T23:14:32.649Z,5.20
2023-03-22T23:39:38.510Z,5.15
2023-03-22T23:48:29.039Z,5.35
2023-03-22T23:50:57.918Z,5.20
2023-03-22T23:53:42.773Z,5.45
2023-03-22T23:56:15.895Z,5.55
2023-03-22T23:58:53.782Z,5.53
